sensor_id;sensor_type;location;lat;lon;timestamp;temperature;humidity
47226;DHT22;32965;64.142;-21.912;2022-09-09T00:00:19;12.70;98.90
47226;DHT22;32965;64.142;-21.912;2022-09-09T00:04:05;12.60;99.00
47226;DHT22;32965;64.142;-21.912;2022-09-09T00:13:49;12.70;99.10
47226;DHT22;32965;64.142;-21.912;2022-09-09T00:17:22;12.70;99.10
47226;DHT22;32965;64.142;-21.912;2022-09-09T00:20:58;12.70;99.10
47226;DHT22;32965;64.142;-21.912;2022-09-09T00:32:00;12.80;99.20
47226;DHT22;32965;64.142;-21.912;2022-09-09T00:35:37;12.70;99.20
47226;DHT22;32965;64.142;-21.912;2022-09-09T00:38:45;12.70;99.20
47226;DHT22;32965;64.142;-21.912;2022-09-09T00:42:33;12.60;99.50
47226;DHT22;32965;64.142;-21.912;2022-09-09T01:02:01;12.70;99.80
47226;DHT22;32965;64.142;-21.912;2022-09-09T01:08:02;12.70;99.90
47226;DHT22;32965;64.142;-21.912;2022-09-09T01:18:43;12.70;99.90
47226;DHT22;32965;64.142;-21.912;2022-09-09T01:24:42;12.70;99.90
47226;DHT22;32965;64.142;-21.912;2022-09-09T01:32:57;12.70;99.90
47226;DHT22;32965;64.142;-21.912;2022-09-09T01:36:15;12.70;99.90
47226;DHT22;32965;64.142;-21.912;2022-09-09T01:43:36;12.60;99.90
47226;DHT22;32965;64.142;-21.912;2022-09-09T01:49:21;12.60;99.90
47226;DHT22;32965;64.142;-21.912;2022-09-09T01:52:45;12.50;99.90
47226;DHT22;32965;64.142;-21.912;2022-09-09T01:56:34;12.50;99.90
47226;DHT22;32965;64.142;-21.912;2022-09-09T02:00:09;12.50;99.90
47226;DHT22;32965;64.142;-21.912;2022-09-09T02:03:47;12.40;99.90
47226;DHT22;32965;64.142;-21.912;2022-09-09T02:17:38;9.70;99.90
47226;DHT22;32965;64.142;-21.912;2022-09-09T02:21:11;12.10;99.90
47226;DHT22;32965;64.142;-21.912;2022-09-09T02:25:04;12.40;99.90
47226;DHT22;32965;64.142;-21.912;2022-09-09T02:36:54;12.20;99.90
47226;DHT22;32965;64.142;-21.912;2022-09-09T02:40:50;11.60;99.90
47226;DHT22;32965;64.142;-21.912;2022-09-09T02:44:16;12.20;99.90
47226;DHT22;32965;64.142;-21.912;2022-09-09T02:47:58;12.10;99.90
47226;DHT22;32965;64.142;-21.912;2022-09-09T02:57:32;12.30;99.90
47226;DHT22;32965;64.142;-21.912;2022-09-09T03:00:59;11.20;99.90
47226;DHT22;32965;64.142;-21.912;2022-09-09T03:04:05;12.30;99.90
47226;DHT22;32965;64.142;-21.912;2022-09-09T03:07:29;12.30;99.90
47226;DHT22;32965;64.142;-21.912;2022-09-09T03:10:41;12.30;99.90
47226;DHT22;32965;64.142;-21.912;2022-09-09T03:16:54;12.30;99.90
47226;DHT22;32965;64.142;-21.912;2022-09-09T03:25:50;12.40;99.90
47226;DHT22;32965;64.142;-21.912;2022-09-09T03:36:45;12.50;99.90
47226;DHT22;32965;64.142;-21.912;2022-09-09T03:45:19;12.50;99.90
47226;DHT22;32965;64.142;-21.912;2022-09-09T03:55:43;12.20;99.90
47226;DHT22;32965;64.142;-21.912;2022-09-09T04:07:46;12.60;99.90
47226;DHT22;32965;64.142;-21.912;2022-09-09T04:11:30;12.60;99.90
47226;DHT22;32965;64.142;-21.912;2022-09-09T04:20:33;12.60;99.90
47226;DHT22;32965;64.142;-21.912;2022-09-09T04:26:28;12.70;99.90
47226;DHT22;32965;64.142;-21.912;2022-09-09T04:42:36;12.70;99.90
47226;DHT22;32965;64.142;-21.912;2022-09-09T05:01:40;12.60;99.90
47226;DHT22;32965;64.142;-21.912;2022-09-09T05:05:00;12.60;99.90
47226;DHT22;32965;64.142;-21.912;2022-09-09T05:08:31;12.70;99.90
47226;DHT22;32965;64.142;-21.912;2022-09-09T05:26:38;12.90;99.90
47226;DHT22;32965;64.142;-21.912;2022-09-09T05:30:02;12.90;99.90
47226;DHT22;32965;64.142;-21.912;2022-09-09T05:33:27;12.90;99.90
47226;DHT22;32965;64.142;-21.912;2022-09-09T05:40:07;11.40;99.90
47226;DHT22;32965;64.142;-21.912;2022-09-09T05:46:09;12.70;99.90
47226;DHT22;32965;64.142;-21.912;2022-09-09T05:52:44;13.00;99.90
47226;DHT22;32965;64.142;-21.912;2022-09-09T05:56:27;12.70;99.90
47226;DHT22;32965;64.142;-21.912;2022-09-09T06:00:20;12.80;99.90
47226;DHT22;32965;64.142;-21.912;2022-09-09T06:04:06;12.80;99.90
47226;DHT22;32965;64.142;-21.912;2022-09-09T06:07:37;9.50;99.90
47226;DHT22;32965;64.142;-21.912;2022-09-09T06:11:33;13.00;99.90
47226;DHT22;32965;64.142;-21.912;2022-09-09T06:39:23;13.10;99.90
47226;DHT22;32965;64.142;-21.912;2022-09-09T06:55:47;13.10;99.90
47226;DHT22;32965;64.142;-21.912;2022-09-09T07:02:38;13.10;99.90
47226;DHT22;32965;64.142;-21.912;2022-09-09T07:08:55;13.00;99.90
47226;DHT22;32965;64.142;-21.912;2022-09-09T07:12:25;13.00;99.90
47226;DHT22;32965;64.142;-21.912;2022-09-09T07:28:25;12.50;99.90
47226;DHT22;32965;64.142;-21.912;2022-09-09T07:35:03;12.20;99.90
47226;DHT22;32965;64.142;-21.912;2022-09-09T07:38:56;12.10;99.90
47226;DHT22;32965;64.142;-21.912;2022-09-09T07:41:58;11.80;99.90
47226;DHT22;32965;64.142;-21.912;2022-09-09T07:45:31;11.70;99.90
47226;DHT22;32965;64.142;-21.912;2022-09-09T07:48:45;11.70;99.90
47226;DHT22;32965;64.142;-21.912;2022-09-09T07:52:12;11.60;99.90
47226;DHT22;32965;64.142;-21.912;2022-09-09T07:54:59;11.60;99.90
47226;DHT22;32965;64.142;-21.912;2022-09-09T07:57:55;11.50;99.90
47226;DHT22;32965;64.142;-21.912;2022-09-09T08:00:37;14.20;99.90
47226;DHT22;32965;64.142;-21.912;2022-09-09T08:03:46;11.50;99.90
47226;DHT22;32965;64.142;-21.912;2022-09-09T08:06:13;11.50;99.90
47226;DHT22;32965;64.142;-21.912;2022-09-09T08:11:26;11.50;99.90
47226;DHT22;32965;64.142;-21.912;2022-09-09T08:14:11;11.50;99.90
47226;DHT22;32965;64.142;-21.912;2022-09-09T08:16:43;11.40;99.90
47226;DHT22;32965;64.142;-21.912;2022-09-09T08:21:46;11.40;99.90
47226;DHT22;32965;64.142;-21.912;2022-09-09T08:24:30;11.40;99.90
47226;DHT22;32965;64.142;-21.912;2022-09-09T08:26:58;11.30;99.90
47226;DHT22;32965;64.142;-21.912;2022-09-09T08:29:25;11.30;99.90
47226;DHT22;32965;64.142;-21.912;2022-09-09T08:32:11;11.30;99.90
47226;DHT22;32965;64.142;-21.912;2022-09-09T08:37:26;11.30;99.90
47226;DHT22;32965;64.142;-21.912;2022-09-09T08:39:51;11.20;99.90
47226;DHT22;32965;64.142;-21.912;2022-09-09T08:42:50;11.20;99.90
47226;DHT22;32965;64.142;-21.912;2022-09-09T08:45:41;11.20;99.90
47226;DHT22;32965;64.142;-21.912;2022-09-09T08:48:44;10.20;99.90
47226;DHT22;32965;64.142;-21.912;2022-09-09T08:51:33;11.20;99.90
47226;DHT22;32965;64.142;-21.912;2022-09-09T08:55:15;11.20;99.90
47226;DHT22;32965;64.142;-21.912;2022-09-09T08:58:54;11.40;99.90
47226;DHT22;32965;64.142;-21.912;2022-09-09T09:16:30;11.20;99.90
47226;DHT22;32965;64.142;-21.912;2022-09-09T09:19:15;11.20;99.90
47226;DHT22;32965;64.142;-21.912;2022-09-09T09:22:41;11.20;99.90
47226;DHT22;32965;64.142;-21.912;2022-09-09T09:26:06;11.20;99.90
47226;DHT22;32965;64.142;-21.912;2022-09-09T09:28:55;11.20;99.90
47226;DHT22;32965;64.142;-21.912;2022-09-09T09:32:11;11.20;99.90
47226;DHT22;32965;64.142;-21.912;2022-09-09T09:35:41;11.20;99.90
47226;DHT22;32965;64.142;-21.912;2022-09-09T09:38:33;11.40;99.90
47226;DHT22;32965;64.142;-21.912;2022-09-09T09:44:38;11.20;99.90
47226;DHT22;32965;64.142;-21.912;2022-09-09T09:50:17;11.20;99.90
47226;DHT22;32965;64.142;-21.912;2022-09-09T09:53:44;11.20;99.90
47226;DHT22;32965;64.142;-21.912;2022-09-09T09:56:35;11.30;99.90
47226;DHT22;32965;64.142;-21.912;2022-09-09T09:59:39;11.30;99.90
47226;DHT22;32965;64.142;-21.912;2022-09-09T10:02:39;11.30;99.90
47226;DHT22;32965;64.142;-21.912;2022-09-09T10:05:55;11.20;99.90
47226;DHT22;32965;64.142;-21.912;2022-09-09T10:08:46;11.20;99.90
47226;DHT22;32965;64.142;-21.912;2022-09-09T10:27:19;11.00;99.90
47226;DHT22;32965;64.142;-21.912;2022-09-09T10:38:29;11.00;99.90
47226;DHT22;32965;64.142;-21.912;2022-09-09T10:44:46;11.00;99.90
47226;DHT22;32965;64.142;-21.912;2022-09-09T10:57:57;10.90;99.90
47226;DHT22;32965;64.142;-21.912;2022-09-09T11:01:24;11.00;99.90
47226;DHT22;32965;64.142;-21.912;2022-09-09T11:08:51;10.90;99.90
47226;DHT22;32965;64.142;-21.912;2022-09-09T11:12:28;10.90;99.90
47226;DHT22;32965;64.142;-21.912;2022-09-09T11:35:09;11.00;99.90
47226;DHT22;32965;64.142;-21.912;2022-09-09T11:38:10;11.00;99.90
47226;DHT22;32965;64.142;-21.912;2022-09-09T11:41:34;11.00;99.90
47226;DHT22;32965;64.142;-21.912;2022-09-09T11:44:26;11.10;99.90
47226;DHT22;32965;64.142;-21.912;2022-09-09T11:48:22;11.10;99.90
47226;DHT22;32965;64.142;-21.912;2022-09-09T11:51:11;11.10;99.90
47226;DHT22;32965;64.142;-21.912;2022-09-09T11:54:55;11.10;99.90
47226;DHT22;32965;64.142;-21.912;2022-09-09T11:57:40;11.10;99.90
47226;DHT22;32965;64.142;-21.912;2022-09-09T12:00:54;11.10;99.90
47226;DHT22;32965;64.142;-21.912;2022-09-09T12:04:25;11.80;99.90
47226;DHT22;32965;64.142;-21.912;2022-09-09T12:10:34;11.30;99.90
47226;DHT22;32965;64.142;-21.912;2022-09-09T12:13:35;11.40;99.90
47226;DHT22;32965;64.142;-21.912;2022-09-09T12:16:36;11.40;99.90
47226;DHT22;32965;64.142;-21.912;2022-09-09T12:19:35;11.50;99.90
47226;DHT22;32965;64.142;-21.912;2022-09-09T12:23:12;11.50;99.90
47226;DHT22;32965;64.142;-21.912;2022-09-09T12:25:58;11.50;99.90
47226;DHT22;32965;64.142;-21.912;2022-09-09T12:32:28;11.50;99.90
47226;DHT22;32965;64.142;-21.912;2022-09-09T12:35:29;11.30;99.90
47226;DHT22;32965;64.142;-21.912;2022-09-09T12:38:34;11.10;99.90
47226;DHT22;32965;64.142;-21.912;2022-09-09T12:42:03;11.10;99.90
47226;DHT22;32965;64.142;-21.912;2022-09-09T12:44:32;11.10;99.90
47226;DHT22;32965;64.142;-21.912;2022-09-09T12:47:53;11.10;99.90
47226;DHT22;32965;64.142;-21.912;2022-09-09T12:51:05;11.10;99.90
47226;DHT22;32965;64.142;-21.912;2022-09-09T12:54:37;11.00;99.90
47226;DHT22;32965;64.142;-21.912;2022-09-09T13:00:25;11.00;99.90
47226;DHT22;32965;64.142;-21.912;2022-09-09T13:03:19;11.00;99.90
47226;DHT22;32965;64.142;-21.912;2022-09-09T13:09:20;10.70;99.90
47226;DHT22;32965;64.142;-21.912;2022-09-09T13:11:52;11.00;99.90
47226;DHT22;32965;64.142;-21.912;2022-09-09T13:14:34;11.00;99.90
47226;DHT22;32965;64.142;-21.912;2022-09-09T13:17:15;10.90;99.90
47226;DHT22;32965;64.142;-21.912;2022-09-09T13:19:45;8.50;99.90
47226;DHT22;32965;64.142;-21.912;2022-09-09T13:28:05;11.00;99.90
47226;DHT22;32965;64.142;-21.912;2022-09-09T13:30:33;11.00;99.90
47226;DHT22;32965;64.142;-21.912;2022-09-09T13:35:59;10.90;99.90
47226;DHT22;32965;64.142;-21.912;2022-09-09T13:38:30;10.90;99.90
47226;DHT22;32965;64.142;-21.912;2022-09-09T13:41:00;11.00;99.90
47226;DHT22;32965;64.142;-21.912;2022-09-09T13:43:31;10.90;99.90
47226;DHT22;32965;64.142;-21.912;2022-09-09T13:46:01;11.00;99.90
47226;DHT22;32965;64.142;-21.912;2022-09-09T13:48:28;10.90;99.90
47226;DHT22;32965;64.142;-21.912;2022-09-09T13:51:03;11.00;99.90
47226;DHT22;32965;64.142;-21.912;2022-09-09T13:53:32;11.00;99.90
47226;DHT22;32965;64.142;-21.912;2022-09-09T13:55:59;11.00;99.90
47226;DHT22;32965;64.142;-21.912;2022-09-09T14:00:52;11.10;99.90
47226;DHT22;32965;64.142;-21.912;2022-09-09T14:05:46;11.10;99.90
47226;DHT22;32965;64.142;-21.912;2022-09-09T14:08:22;11.10;99.90
47226;DHT22;32965;64.142;-21.912;2022-09-09T14:10:48;11.10;99.90
47226;DHT22;32965;64.142;-21.912;2022-09-09T14:15:42;11.10;99.90
47226;DHT22;32965;64.142;-21.912;2022-09-09T14:18:12;11.10;99.90
47226;DHT22;32965;64.142;-21.912;2022-09-09T14:20:40;11.10;99.90
47226;DHT22;32965;64.142;-21.912;2022-09-09T14:27:58;11.20;99.90
47226;DHT22;32965;64.142;-21.912;2022-09-09T14:30:24;11.30;99.90
47226;DHT22;32965;64.142;-21.912;2022-09-09T14:32:55;11.30;99.90
47226;DHT22;32965;64.142;-21.912;2022-09-09T14:35:23;11.40;99.90
47226;DHT22;32965;64.142;-21.912;2022-09-09T14:37:50;11.50;99.90
47226;DHT22;32965;64.142;-21.912;2022-09-09T14:42:45;11.70;99.90
47226;DHT22;32965;64.142;-21.912;2022-09-09T14:45:11;11.80;99.90
47226;DHT22;32965;64.142;-21.912;2022-09-09T14:50:04;11.90;99.90
47226;DHT22;32965;64.142;-21.912;2022-09-09T14:52:36;11.90;99.90
47226;DHT22;32965;64.142;-21.912;2022-09-09T14:57:33;12.00;99.90
47226;DHT22;32965;64.142;-21.912;2022-09-09T15:00:05;12.00;99.90
47226;DHT22;32965;64.142;-21.912;2022-09-09T15:02:31;12.10;99.90
47226;DHT22;32965;64.142;-21.912;2022-09-09T15:05:01;11.90;99.90
47226;DHT22;32965;64.142;-21.912;2022-09-09T15:12:28;11.90;99.90
47226;DHT22;32965;64.142;-21.912;2022-09-09T15:14:54;12.00;99.90
47226;DHT22;32965;64.142;-21.912;2022-09-09T15:17:31;12.10;99.90
47226;DHT22;32965;64.142;-21.912;2022-09-09T15:19:57;12.10;99.90
47226;DHT22;32965;64.142;-21.912;2022-09-09T15:22:23;12.20;99.90
47226;DHT22;32965;64.142;-21.912;2022-09-09T15:24:50;12.20;99.90
47226;DHT22;32965;64.142;-21.912;2022-09-09T15:27:28;12.20;99.90
47226;DHT22;32965;64.142;-21.912;2022-09-09T15:32:25;12.20;99.90
47226;DHT22;32965;64.142;-21.912;2022-09-09T15:34:52;12.20;99.90
47226;DHT22;32965;64.142;-21.912;2022-09-09T15:37:21;12.20;99.90
47226;DHT22;32965;64.142;-21.912;2022-09-09T15:39:48;12.20;99.90
47226;DHT22;32965;64.142;-21.912;2022-09-09T15:42:18;12.20;99.90
47226;DHT22;32965;64.142;-21.912;2022-09-09T15:44:47;12.30;99.90
47226;DHT22;32965;64.142;-21.912;2022-09-09T15:47:15;12.30;99.90
47226;DHT22;32965;64.142;-21.912;2022-09-09T15:49:41;12.20;99.90
47226;DHT22;32965;64.142;-21.912;2022-09-09T15:52:10;12.20;99.90
47226;DHT22;32965;64.142;-21.912;2022-09-09T15:54:37;12.20;99.90
47226;DHT22;32965;64.142;-21.912;2022-09-09T15:57:11;12.20;99.90
47226;DHT22;32965;64.142;-21.912;2022-09-09T15:59:38;12.20;99.90
47226;DHT22;32965;64.142;-21.912;2022-09-09T16:02:04;12.10;99.90
47226;DHT22;32965;64.142;-21.912;2022-09-09T16:04:31;12.10;99.90
47226;DHT22;32965;64.142;-21.912;2022-09-09T16:07:02;12.10;99.90
47226;DHT22;32965;64.142;-21.912;2022-09-09T16:09:29;12.10;99.90
47226;DHT22;32965;64.142;-21.912;2022-09-09T16:11:59;12.10;99.90
47226;DHT22;32965;64.142;-21.912;2022-09-09T16:14:32;12.10;99.90
47226;DHT22;32965;64.142;-21.912;2022-09-09T16:17:16;12.00;99.90
47226;DHT22;32965;64.142;-21.912;2022-09-09T16:19:49;12.00;99.90
47226;DHT22;32965;64.142;-21.912;2022-09-09T16:22:15;12.00;99.90
47226;DHT22;32965;64.142;-21.912;2022-09-09T16:24:41;12.00;99.90
47226;DHT22;32965;64.142;-21.912;2022-09-09T16:27:07;12.00;99.90
47226;DHT22;32965;64.142;-21.912;2022-09-09T16:29:33;12.00;99.90
47226;DHT22;32965;64.142;-21.912;2022-09-09T16:31:59;12.00;99.90
47226;DHT22;32965;64.142;-21.912;2022-09-09T16:34:25;12.00;99.90
47226;DHT22;32965;64.142;-21.912;2022-09-09T16:36:51;12.00;99.90
47226;DHT22;32965;64.142;-21.912;2022-09-09T16:39:19;12.10;99.90
47226;DHT22;32965;64.142;-21.912;2022-09-09T16:41:47;12.00;99.90
47226;DHT22;32965;64.142;-21.912;2022-09-09T16:44:18;12.00;99.90
47226;DHT22;32965;64.142;-21.912;2022-09-09T16:46:45;12.00;99.90
47226;DHT22;32965;64.142;-21.912;2022-09-09T16:49:13;12.00;99.90
47226;DHT22;32965;64.142;-21.912;2022-09-09T16:51:43;12.00;99.90
47226;DHT22;32965;64.142;-21.912;2022-09-09T16:54:10;12.00;99.90
47226;DHT22;32965;64.142;-21.912;2022-09-09T16:56:38;12.00;99.90
47226;DHT22;32965;64.142;-21.912;2022-09-09T16:59:19;12.10;99.90
47226;DHT22;32965;64.142;-21.912;2022-09-09T17:01:48;12.10;99.90
47226;DHT22;32965;64.142;-21.912;2022-09-09T17:04:20;12.00;99.90
47226;DHT22;32965;64.142;-21.912;2022-09-09T17:06:47;12.00;99.90
47226;DHT22;32965;64.142;-21.912;2022-09-09T17:09:15;12.00;99.90
47226;DHT22;32965;64.142;-21.912;2022-09-09T17:11:40;12.00;99.90
47226;DHT22;32965;64.142;-21.912;2022-09-09T17:14:08;12.00;99.90
47226;DHT22;32965;64.142;-21.912;2022-09-09T17:16:35;12.00;99.90
47226;DHT22;32965;64.142;-21.912;2022-09-09T17:19:02;12.00;99.90
47226;DHT22;32965;64.142;-21.912;2022-09-09T17:21:29;12.10;99.90
47226;DHT22;32965;64.142;-21.912;2022-09-09T17:23:58;12.10;99.90
47226;DHT22;32965;64.142;-21.912;2022-09-09T17:26:26;12.10;99.90
47226;DHT22;32965;64.142;-21.912;2022-09-09T17:28:54;12.10;99.90
47226;DHT22;32965;64.142;-21.912;2022-09-09T17:31:21;12.10;99.90
47226;DHT22;32965;64.142;-21.912;2022-09-09T17:33:49;12.10;99.90
47226;DHT22;32965;64.142;-21.912;2022-09-09T17:38:45;12.10;99.90
47226;DHT22;32965;64.142;-21.912;2022-09-09T17:43:41;12.10;99.90
47226;DHT22;32965;64.142;-21.912;2022-09-09T17:46:19;12.10;99.90
47226;DHT22;32965;64.142;-21.912;2022-09-09T17:48:49;12.10;99.90
47226;DHT22;32965;64.142;-21.912;2022-09-09T17:51:18;12.10;99.90
47226;DHT22;32965;64.142;-21.912;2022-09-09T17:53:45;12.10;99.90
47226;DHT22;32965;64.142;-21.912;2022-09-09T17:56:13;12.10;99.90
47226;DHT22;32965;64.142;-21.912;2022-09-09T17:58:40;12.10;99.90
47226;DHT22;32965;64.142;-21.912;2022-09-09T18:01:09;12.20;99.90
47226;DHT22;32965;64.142;-21.912;2022-09-09T18:03:38;12.20;99.90
47226;DHT22;32965;64.142;-21.912;2022-09-09T18:06:07;12.30;99.90
47226;DHT22;32965;64.142;-21.912;2022-09-09T18:08:34;12.40;99.90
47226;DHT22;32965;64.142;-21.912;2022-09-09T18:11:03;12.40;99.90
47226;DHT22;32965;64.142;-21.912;2022-09-09T18:13:29;12.50;99.90
47226;DHT22;32965;64.142;-21.912;2022-09-09T18:15:55;12.60;99.90
47226;DHT22;32965;64.142;-21.912;2022-09-09T18:18:21;12.60;99.90
47226;DHT22;32965;64.142;-21.912;2022-09-09T18:21:01;12.70;99.90
47226;DHT22;32965;64.142;-21.912;2022-09-09T18:23:28;12.80;99.90
47226;DHT22;32965;64.142;-21.912;2022-09-09T18:25:54;12.70;99.90
47226;DHT22;32965;64.142;-21.912;2022-09-09T18:28:20;12.70;99.90
47226;DHT22;32965;64.142;-21.912;2022-09-09T18:30:46;12.70;99.90
47226;DHT22;32965;64.142;-21.912;2022-09-09T18:33:13;12.70;99.90
47226;DHT22;32965;64.142;-21.912;2022-09-09T18:35:39;12.70;99.90
47226;DHT22;32965;64.142;-21.912;2022-09-09T18:38:06;12.70;99.90
47226;DHT22;32965;64.142;-21.912;2022-09-09T18:40:32;12.70;99.90
47226;DHT22;32965;64.142;-21.912;2022-09-09T18:42:58;12.60;99.90
47226;DHT22;32965;64.142;-21.912;2022-09-09T18:45:24;12.60;99.90
47226;DHT22;32965;64.142;-21.912;2022-09-09T18:47:50;12.60;99.90
47226;DHT22;32965;64.142;-21.912;2022-09-09T18:50:21;12.60;99.90
47226;DHT22;32965;64.142;-21.912;2022-09-09T18:52:47;12.60;99.90
47226;DHT22;32965;64.142;-21.912;2022-09-09T18:55:13;12.60;99.90
47226;DHT22;32965;64.142;-21.912;2022-09-09T18:57:39;12.60;99.90
47226;DHT22;32965;64.142;-21.912;2022-09-09T19:00:06;12.60;99.90
47226;DHT22;32965;64.142;-21.912;2022-09-09T19:02:34;12.60;99.90
47226;DHT22;32965;64.142;-21.912;2022-09-09T19:05:00;12.60;99.90
47226;DHT22;32965;64.142;-21.912;2022-09-09T19:07:27;12.60;99.90
47226;DHT22;32965;64.142;-21.912;2022-09-09T19:09:53;12.60;99.90
47226;DHT22;32965;64.142;-21.912;2022-09-09T19:12:18;12.60;99.90
47226;DHT22;32965;64.142;-21.912;2022-09-09T19:14:44;12.70;99.90
47226;DHT22;32965;64.142;-21.912;2022-09-09T19:17:10;12.70;99.90
47226;DHT22;32965;64.142;-21.912;2022-09-09T19:19:37;12.70;99.90
47226;DHT22;32965;64.142;-21.912;2022-09-09T19:22:07;12.70;99.90
47226;DHT22;32965;64.142;-21.912;2022-09-09T19:24:36;12.70;99.90
47226;DHT22;32965;64.142;-21.912;2022-09-09T19:27:04;12.60;99.90
47226;DHT22;32965;64.142;-21.912;2022-09-09T19:29:34;12.70;99.90
47226;DHT22;32965;64.142;-21.912;2022-09-09T19:32:01;12.70;99.90
47226;DHT22;32965;64.142;-21.912;2022-09-09T19:34:27;12.70;99.90
47226;DHT22;32965;64.142;-21.912;2022-09-09T19:36:53;12.70;99.90
47226;DHT22;32965;64.142;-21.912;2022-09-09T19:39:22;12.70;99.90
47226;DHT22;32965;64.142;-21.912;2022-09-09T19:41:48;12.80;99.90
47226;DHT22;32965;64.142;-21.912;2022-09-09T19:44:15;12.70;99.90
47226;DHT22;32965;64.142;-21.912;2022-09-09T19:46:42;12.70;99.90
47226;DHT22;32965;64.142;-21.912;2022-09-09T19:49:09;12.70;99.90
47226;DHT22;32965;64.142;-21.912;2022-09-09T19:51:35;12.70;99.90
47226;DHT22;32965;64.142;-21.912;2022-09-09T19:54:11;12.70;99.90
47226;DHT22;32965;64.142;-21.912;2022-09-09T19:56:39;12.70;99.90
47226;DHT22;32965;64.142;-21.912;2022-09-09T19:59:11;12.70;99.90
47226;DHT22;32965;64.142;-21.912;2022-09-09T20:01:41;12.70;99.90
47226;DHT22;32965;64.142;-21.912;2022-09-09T20:06:38;12.60;99.90
47226;DHT22;32965;64.142;-21.912;2022-09-09T20:09:06;12.70;99.90
47226;DHT22;32965;64.142;-21.912;2022-09-09T20:11:33;12.60;99.90
47226;DHT22;32965;64.142;-21.912;2022-09-09T20:14:00;12.70;99.90
47226;DHT22;32965;64.142;-21.912;2022-09-09T20:16:28;12.70;99.90
47226;DHT22;32965;64.142;-21.912;2022-09-09T20:18:57;12.60;99.90
47226;DHT22;32965;64.142;-21.912;2022-09-09T20:21:27;12.60;99.90
47226;DHT22;32965;64.142;-21.912;2022-09-09T20:23:54;12.70;99.90
47226;DHT22;32965;64.142;-21.912;2022-09-09T20:26:26;12.70;99.90
47226;DHT22;32965;64.142;-21.912;2022-09-09T20:28:57;12.70;99.90
47226;DHT22;32965;64.142;-21.912;2022-09-09T20:31:26;12.70;99.90
47226;DHT22;32965;64.142;-21.912;2022-09-09T20:33:54;12.60;99.90
47226;DHT22;32965;64.142;-21.912;2022-09-09T20:41:24;12.60;99.90
47226;DHT22;32965;64.142;-21.912;2022-09-09T20:44:06;12.50;99.90
47226;DHT22;32965;64.142;-21.912;2022-09-09T20:46:39;12.50;99.90
47226;DHT22;32965;64.142;-21.912;2022-09-09T20:49:06;12.50;99.90
47226;DHT22;32965;64.142;-21.912;2022-09-09T20:51:34;12.50;99.90
47226;DHT22;32965;64.142;-21.912;2022-09-09T20:54:05;12.50;99.90
47226;DHT22;32965;64.142;-21.912;2022-09-09T20:56:36;12.50;99.90
47226;DHT22;32965;64.142;-21.912;2022-09-09T20:59:03;12.50;99.90
47226;DHT22;32965;64.142;-21.912;2022-09-09T21:01:29;12.50;99.90
47226;DHT22;32965;64.142;-21.912;2022-09-09T21:03:55;12.50;99.90
47226;DHT22;32965;64.142;-21.912;2022-09-09T21:06:21;12.50;99.90
47226;DHT22;32965;64.142;-21.912;2022-09-09T21:08:48;12.50;99.90
47226;DHT22;32965;64.142;-21.912;2022-09-09T21:11:14;12.50;99.90
47226;DHT22;32965;64.142;-21.912;2022-09-09T21:13:40;12.50;99.90
47226;DHT22;32965;64.142;-21.912;2022-09-09T21:16:09;12.50;99.90
47226;DHT22;32965;64.142;-21.912;2022-09-09T21:18:36;12.60;99.90
47226;DHT22;32965;64.142;-21.912;2022-09-09T21:21:05;12.60;99.90
47226;DHT22;32965;64.142;-21.912;2022-09-09T21:23:31;12.50;99.90
47226;DHT22;32965;64.142;-21.912;2022-09-09T21:25:57;12.60;99.90
47226;DHT22;32965;64.142;-21.912;2022-09-09T21:28:23;12.60;99.90
47226;DHT22;32965;64.142;-21.912;2022-09-09T21:30:51;12.60;99.90
47226;DHT22;32965;64.142;-21.912;2022-09-09T21:33:19;12.70;99.90
47226;DHT22;32965;64.142;-21.912;2022-09-09T21:35:47;12.70;99.90
47226;DHT22;32965;64.142;-21.912;2022-09-09T21:38:15;12.70;99.90
47226;DHT22;32965;64.142;-21.912;2022-09-09T21:40:42;12.70;99.90
47226;DHT22;32965;64.142;-21.912;2022-09-09T21:43:11;12.70;99.90
47226;DHT22;32965;64.142;-21.912;2022-09-09T21:45:39;12.70;99.90
47226;DHT22;32965;64.142;-21.912;2022-09-09T21:48:07;12.70;99.90
47226;DHT22;32965;64.142;-21.912;2022-09-09T21:50:38;12.70;99.90
47226;DHT22;32965;64.142;-21.912;2022-09-09T21:53:05;12.70;99.90
47226;DHT22;32965;64.142;-21.912;2022-09-09T21:55:35;12.70;99.90
47226;DHT22;32965;64.142;-21.912;2022-09-09T21:58:02;12.80;99.90
47226;DHT22;32965;64.142;-21.912;2022-09-09T22:00:28;12.70;99.90
47226;DHT22;32965;64.142;-21.912;2022-09-09T22:02:54;12.70;99.90
47226;DHT22;32965;64.142;-21.912;2022-09-09T22:05:20;12.80;99.90
47226;DHT22;32965;64.142;-21.912;2022-09-09T22:07:46;12.80;99.90
47226;DHT22;32965;64.142;-21.912;2022-09-09T22:10:12;12.80;99.90
47226;DHT22;32965;64.142;-21.912;2022-09-09T22:12:38;12.80;99.90
47226;DHT22;32965;64.142;-21.912;2022-09-09T22:15:05;12.70;99.90
47226;DHT22;32965;64.142;-21.912;2022-09-09T22:17:34;12.70;99.90
47226;DHT22;32965;64.142;-21.912;2022-09-09T22:20:00;12.80;99.90
47226;DHT22;32965;64.142;-21.912;2022-09-09T22:22:26;12.80;99.90
47226;DHT22;32965;64.142;-21.912;2022-09-09T22:24:52;12.80;99.90
47226;DHT22;32965;64.142;-21.912;2022-09-09T22:27:17;12.80;99.90
47226;DHT22;32965;64.142;-21.912;2022-09-09T22:29:43;12.80;99.90
47226;DHT22;32965;64.142;-21.912;2022-09-09T22:32:09;12.80;99.90
47226;DHT22;32965;64.142;-21.912;2022-09-09T22:34:38;12.80;99.90
47226;DHT22;32965;64.142;-21.912;2022-09-09T22:37:04;12.80;99.90
47226;DHT22;32965;64.142;-21.912;2022-09-09T22:39:30;12.80;99.90
47226;DHT22;32965;64.142;-21.912;2022-09-09T22:41:57;12.80;99.90
47226;DHT22;32965;64.142;-21.912;2022-09-09T22:44:26;12.80;99.90
47226;DHT22;32965;64.142;-21.912;2022-09-09T22:46:55;12.80;99.90
47226;DHT22;32965;64.142;-21.912;2022-09-09T22:49:22;12.80;99.90
47226;DHT22;32965;64.142;-21.912;2022-09-09T22:51:48;12.80;99.90
47226;DHT22;32965;64.142;-21.912;2022-09-09T22:54:14;12.80;99.90
47226;DHT22;32965;64.142;-21.912;2022-09-09T22:56:47;12.80;99.90
47226;DHT22;32965;64.142;-21.912;2022-09-09T22:59:13;12.90;99.90
47226;DHT22;32965;64.142;-21.912;2022-09-09T23:01:40;12.90;99.90
47226;DHT22;32965;64.142;-21.912;2022-09-09T23:04:12;12.90;99.90
47226;DHT22;32965;64.142;-21.912;2022-09-09T23:06:39;12.90;99.90
47226;DHT22;32965;64.142;-21.912;2022-09-09T23:09:09;12.90;99.90
47226;DHT22;32965;64.142;-21.912;2022-09-09T23:11:35;12.90;99.90
47226;DHT22;32965;64.142;-21.912;2022-09-09T23:14:04;12.90;99.90
47226;DHT22;32965;64.142;-21.912;2022-09-09T23:16:36;12.90;99.90
47226;DHT22;32965;64.142;-21.912;2022-09-09T23:19:05;12.90;99.90
47226;DHT22;32965;64.142;-21.912;2022-09-09T23:21:35;12.90;99.90